Create Custom Reports and Graphics: Custom Report

Kelseyville Remote

Current Conditions

9/28/21 1:30 PM (-07:00)
Updated Every 15 Minutes
Temp 69.3 °F   0.5
RH 31 %   27
Dew Pt 37.1 °F   16.9
Wet Bulb 52.0 °F   8.6
BatVolt 13.6 V   0.0
Monthly Rain 0.07 In
Seasonal Rainfall 0.07 In

Today & Yesterday

Kelseyville Remote

9/28/21 1:30 PM (-07:00)
Updated Every 15 Minutes
Daily Max Temp 70.5 °F   1.3
Time of Max Temp 1329
Daily Min Temp 42.6 °F   2.1
Time of Min Temp 0715
Daily Rain 0.00 In
Yesterday's Max Temp 71.8 °F
Yesterday’s Min Temp 44.8 °F
Yesterday's Rainfall 0.00 In

Last 7 Days

Kelseyville Remote

Hourly Data | America/Los_Angeles
as of 9/28/21 1:31 PM PDT
Date & Time Temp (°F) RH (%) Dew Pt (°F) Wet Bulb (°F) BatVolt (V) Latest Rain (In) Daily Rain (In) Daily Min Temp (°F) Daily Max Temp (°F)
9/28/21 - 1300 67.7 32 36.8 51.3 13.6 0.00 0.00 42.6 69.5
9/28/21 - 1200 64.5 36 37.0 50.2 13.7 0.00 0.00 42.6 66.4
9/28/21 - 1100 62.0 42 38.4 49.9 13.7 0.00 0.00 42.6 63.8
9/28/21 - 1000 58.2 50 39.4 48.8 13.8 0.00 0.00 42.6 59.6
9/28/21 - 0900 52.2 67 41.7 47.3 13.9 0.00 0.00 42.6 55.4
9/28/21 - 0800 44.3 85 40.0 42.6 14.0 0.00 0.00 42.6 49.4
9/28/21 - 0700 44.6 84 40.1 42.7 12.8 0.00 0.00 43.0 49.4
9/28/21 - 0600 46.8 79 40.7 44.2 12.8 0.00 0.00 45.9 49.4
9/28/21 - 0500 48.3 77 41.4 45.3 12.9 0.00 0.00 46.0 49.4
9/28/21 - 0400 47.6 80 41.6 45.0 12.9 0.00 0.00 46.0 49.4
9/28/21 - 0300 47.3 83 42.4 45.3 12.9 0.00 0.00 46.0 49.4
9/28/21 - 0200 47.6 81 42.2 45.3 12.9 0.00 0.00 46.0 49.4
9/28/21 - 0100 51.0 75 43.4 47.6 13.0 0.00 0.00 44.8 71.8
9/28/21 - 0000 52.3 74 44.4 48.7 13.0 0.00 0.00 44.8 71.8
9/27/21 - 2300 54.4 71 45.3 50.1 13.0 0.00 0.00 44.8 71.8
9/27/21 - 2200 55.7 72 46.8 51.4 13.0 0.00 0.00 44.8 71.8
9/27/21 - 2100 56.6 70 47.1 52.0 13.0 0.00 0.00 44.8 71.8
9/27/21 - 2000 57.9 69 47.8 52.9 13.0 0.00 0.00 44.8 71.8
9/27/21 - 1900 59.1 74 50.9 55.2 13.1 0.00 0.00 44.8 71.8
9/27/21 - 1800 62.8 78 55.8 59.7 13.8 0.00 0.00 44.8 71.8
9/27/21 - 1700 64.0 80 57.8 61.5 13.7 0.00 0.00 44.8 71.8
9/27/21 - 1600 67.2 67 55.8 61.0 13.6 0.00 0.00 44.8 71.8
9/27/21 - 1500 70.3 59 55.1 61.4 13.6 0.00 0.00 44.8 71.8
9/27/21 - 1400 70.4 56 54.1 60.7 13.6 0.00 0.00 44.8 71.8
9/27/21 - 1300 70.2 55 53.3 60.2 13.6 0.00 0.00 44.8 71.8
9/27/21 - 1200 69.7 54 52.3 59.5 13.6 0.00 0.00 44.8 71.0
9/27/21 - 1100 66.4 60 52.2 58.4 13.7 0.00 0.00 44.8 68.2
9/27/21 - 1000 65.4 63 52.6 58.4 13.7 0.00 0.00 44.8 66.7
9/27/21 - 0900 61.2 69 50.8 55.9 13.8 0.00 0.00 44.8 64.9
9/27/21 - 0800 51.0 81 45.4 48.6 14.0 0.00 0.00 44.8 56.1
9/27/21 - 0700 50.7 80 44.7 48.1 12.8 0.00 0.00 44.8 51.9
9/27/21 - 0600 48.1 77 41.4 45.1 12.8 0.00 0.00 44.8 51.0
9/27/21 - 0500 45.8 76 38.8 42.8 12.8 0.00 0.00 44.8 49.6
9/27/21 - 0400 47.9 77 40.9 44.9 12.9 0.00 0.00 45.6 49.6
9/27/21 - 0300 46.8 76 39.6 43.7 12.9 0.00 0.00 45.6 48.9
9/27/21 - 0200 46.7 75 39.2 43.4 12.9 0.00 0.00 46.0 47.5
9/27/21 - 0100 50.0 73 41.7 46.3 13.0 0.00 0.00 44.1 82.8
9/27/21 - 0000 52.6 68 42.5 47.8 13.0 0.00 0.00 44.1 82.8
9/26/21 - 2300 55.7 66 44.7 50.3 13.0 0.00 0.00 44.1 82.8
9/26/21 - 2200 59.2 60 45.4 52.1 13.0 0.00 0.00 44.1 82.8
9/26/21 - 2100 62.8 53 45.2 53.3 13.0 0.00 0.00 44.1 82.8
9/26/21 - 2000 67.2 44 44.5 54.4 13.1 0.00 0.00 44.1 82.8
9/26/21 - 1900 73.8 35 44.1 56.3 13.2 0.00 0.00 44.1 82.8
9/26/21 - 1800 78.6 31 45.8 58.2 13.5 0.00 0.00 44.1 82.8
9/26/21 - 1700 81.6 22 39.4 56.4 13.5 0.00 0.00 44.1 82.8
9/26/21 - 1600 82.1 19 35.4 55.1 13.5 0.00 0.00 44.1 82.8
9/26/21 - 1500 81.2 15 29.0 53.1 13.5 0.00 0.00 44.1 82.3
9/26/21 - 1400 79.8 25 40.6 56.4 13.5 0.00 0.00 44.1 81.5
9/26/21 - 1300 78.0 31 44.7 57.6 13.5 0.00 0.00 44.1 81.5
9/26/21 - 1200 72.0 39 45.9 56.6 13.6 0.00 0.00 44.1 75.3
9/26/21 - 1100 67.8 50 48.4 56.7 13.7 0.00 0.00 44.1 69.6
9/26/21 - 1000 64.9 51 46.5 54.7 13.7 0.00 0.00 44.1 67.3
9/26/21 - 0900 59.1 53 42.0 50.3 13.8 0.00 0.00 44.1 63.7
9/26/21 - 0800 46.8 73 38.3 43.0 14.0 0.00 0.00 44.1 56.5
9/26/21 - 0700 44.4 82 39.1 42.2 12.8 0.00 0.00 44.1 56.5
9/26/21 - 0600 46.2 80 40.4 43.7 12.8 0.00 0.00 44.8 56.5
9/26/21 - 0500 49.1 78 42.5 46.2 12.8 0.00 0.00 48.2 56.5
9/26/21 - 0400 49.4 72 40.9 45.6 12.9 0.00 0.00 49.2 56.5
9/26/21 - 0300 51.5 65 40.3 46.3 12.9 0.00 0.00 50.0 56.5
9/26/21 - 0200 55.8 62 43.0 49.5 12.9 0.00 0.00 53.7 56.5
9/26/21 - 0100 56.2 64 44.3 50.3 13.0 0.00 0.00 44.8 88.9
9/26/21 - 0000 55.8 64 43.7 49.8 13.0 0.00 0.00 44.8 88.9
9/25/21 - 2300 60.1 57 44.6 52.0 13.0 0.00 0.00 44.8 88.9
9/25/21 - 2200 65.6 46 44.3 53.8 13.0 0.00 0.00 44.8 88.9
9/25/21 - 2100 67.1 45 45.2 54.8 13.0 0.00 0.00 44.8 88.9
9/25/21 - 2000 73.0 38 45.8 56.8 13.1 0.00 0.00 44.8 88.9
9/25/21 - 1900 81.7 28 45.4 58.8 13.2 0.00 0.00 44.8 88.9
9/25/21 - 1800 86.0 22 43.2 58.8 13.4 0.00 0.00 44.8 88.9
9/25/21 - 1700 87.9 19 40.6 58.1 13.4 0.00 0.00 44.8 88.9
9/25/21 - 1600 88.0 18 39.4 57.7 13.4 0.00 0.00 44.8 88.9
9/25/21 - 1500 87.8 18 38.9 57.5 13.4 0.00 0.00 44.8 88.9
9/25/21 - 1400 87.6 18 39.0 57.5 13.4 0.00 0.00 44.8 88.9
9/25/21 - 1300 84.2 21 39.8 57.1 13.5 0.00 0.00 44.8 85.8
9/25/21 - 1200 78.5 30 44.4 57.6 13.5 0.00 0.00 44.8 81.8
9/25/21 - 1100 75.0 39 48.4 58.7 13.6 0.00 0.00 44.8 76.0
9/25/21 - 1000 70.9 37 43.6 55.2 13.7 0.00 0.00 44.8 73.6
9/25/21 - 0900 62.1 41 37.8 49.6 13.8 0.00 0.00 44.8 67.1
9/25/21 - 0800 47.5 64 36.0 42.4 14.0 0.00 0.00 44.8 56.1
9/25/21 - 0700 45.1 69 35.7 41.1 12.7 0.00 0.00 44.8 53.5
9/25/21 - 0600 46.2 66 35.4 41.5 12.8 0.00 0.00 45.5 53.5
9/25/21 - 0500 47.8 63 35.9 42.5 12.8 0.00 0.00 46.6 53.5
9/25/21 - 0400 48.7 63 36.7 43.3 12.8 0.00 0.00 47.6 53.5
9/25/21 - 0300 50.7 63 38.6 45.2 12.9 0.00 0.00 49.2 53.5
9/25/21 - 0200 52.8 59 38.7 46.1 12.9 0.00 0.00 52.1 53.5
9/25/21 - 0100 55.0 53 38.2 46.9 12.9 0.00 0.00 47.8 97.8
9/25/21 - 0000 59.6 49 40.2 49.7 13.0 0.00 0.00 47.8 97.8
9/24/21 - 2300 61.0 46 40.4 50.4 13.0 0.00 0.00 47.8 97.8
9/24/21 - 2200 63.5 45 41.9 52.0 13.0 0.00 0.00 47.8 97.8
9/24/21 - 2100 71.1 33 40.7 54.0 13.0 0.00 0.00 47.8 97.8
9/24/21 - 2000 78.7 25 40.0 55.8 13.1 0.00 0.00 47.8 97.8
9/24/21 - 1900 87.3 19 40.0 57.8 13.2 0.00 0.00 47.8 97.8
9/24/21 - 1800 93.2 16 39.8 58.8 13.3 0.00 0.00 47.8 97.8
9/24/21 - 1700 96.7 12 34.8 57.9 13.3 0.00 0.00 47.8 97.8
9/24/21 - 1600 95.3 13 35.7 57.9 13.3 0.00 0.00 47.8 96.2
9/24/21 - 1500 93.8 15 38.4 58.5 13.4 0.00 0.00 47.8 94.3
9/24/21 - 1400 92.8 15 38.3 58.3 13.4 0.00 0.00 47.8 94.0
9/24/21 - 1300 88.7 20 41.8 58.7 13.4 0.00 0.00 47.8 91.2
9/24/21 - 1200 82.2 27 44.5 58.5 13.5 0.00 0.00 47.8 85.6
9/24/21 - 1100 77.2 32 45.1 57.6 13.6 0.00 0.00 47.8 79.0
9/24/21 - 1000 73.3 32 41.4 54.9 13.7 0.00 0.00 47.8 75.9
9/24/21 - 0900 63.1 44 40.7 51.3 13.8 0.00 0.00 47.8 67.5
9/24/21 - 0800 50.6 65 39.1 45.2 14.0 0.00 0.00 47.8 57.5
9/24/21 - 0700 48.8 69 39.0 44.4 12.7 0.00 0.00 47.9 56.9
9/24/21 - 0600 49.4 71 40.5 45.4 12.8 0.00 0.00 48.4 56.9
9/24/21 - 0500 50.9 64 39.4 45.6 12.8 0.00 0.00 50.4 56.9
9/24/21 - 0400 52.6 65 41.1 47.2 12.9 0.00 0.00 51.7 56.9
9/24/21 - 0300 53.5 60 40.0 47.0 12.9 0.00 0.00 52.7 56.9
9/24/21 - 0200 55.1 60 41.5 48.5 12.9 0.00 0.00 53.9 56.9
9/24/21 - 0100 57.4 55 41.4 49.4 12.9 0.00 0.00 46.8 95.8
9/24/21 - 0000 59.5 55 43.2 51.2 13.0 0.00 0.00 46.8 95.8
9/23/21 - 2300 63.2 46 42.3 52.0 13.0 0.00 0.00 46.8 95.8
9/23/21 - 2200 67.4 42 43.6 54.1 13.0 0.00 0.00 46.8 95.8
9/23/21 - 2100 70.8 39 44.2 55.5 13.0 0.00 0.00 46.8 95.8
9/23/21 - 2000 79.7 28 43.2 57.3 13.1 0.00 0.00 46.8 95.8
9/23/21 - 1900 89.5 21 44.5 59.9 13.2 0.00 0.00 46.8 95.8
9/23/21 - 1800 93.7 18 43.3 60.2 13.3 0.00 0.00 46.8 95.8
9/23/21 - 1700 94.3 14 38.0 58.5 13.3 0.00 0.00 46.8 95.8
9/23/21 - 1600 94.7 12 34.8 57.6 13.3 0.00 0.00 46.8 95.8
9/23/21 - 1500 94.1 12 33.8 57.2 13.4 0.00 0.00 46.8 95.1
9/23/21 - 1400 91.4 18 41.2 59.1 13.4 0.00 0.00 46.8 93.6
9/23/21 - 1300 85.4 25 45.5 59.6 13.5 0.00 0.00 46.8 88.0
9/23/21 - 1200 80.2 32 47.8 59.6 13.5 0.00 0.00 46.8 82.8
9/23/21 - 1100 75.6 39 49.0 59.2 13.6 0.00 0.00 46.8 78.5
9/23/21 - 1000 71.8 38 44.8 56.1 13.7 0.00 0.00 46.8 74.3
9/23/21 - 0900 64.3 40 39.5 51.1 13.8 0.00 0.00 46.8 69.9
9/23/21 - 0800 50.0 61 36.7 43.9 14.0 0.00 0.00 46.8 56.2
9/23/21 - 0700 47.4 68 37.4 43.0 12.7 0.00 0.00 46.8 54.6
9/23/21 - 0600 47.9 66 37.1 43.1 12.8 0.00 0.00 47.4 54.6
9/23/21 - 0500 49.3 64 37.4 43.9 12.8 0.00 0.00 47.8 54.6
9/23/21 - 0400 49.2 63 37.3 43.8 12.8 0.00 0.00 48.8 54.6
9/23/21 - 0300 51.0 57 36.1 44.2 12.9 0.00 0.00 49.7 54.6
9/23/21 - 0200 52.6 54 36.3 45.0 12.9 0.00 0.00 51.6 54.6
9/23/21 - 0100 54.9 51 37.1 46.4 12.9 0.00 0.00 48.4 94.2
9/23/21 - 0000 58.2 46 37.6 48.0 12.9 0.00 0.00 48.4 94.2
9/22/21 - 2300 61.4 41 37.5 49.3 13.0 0.00 0.00 48.4 94.2
9/22/21 - 2200 65.9 37 38.7 51.4 13.0 0.00 0.00 48.4 94.2
9/22/21 - 2100 70.1 32 38.8 52.9 13.0 0.00 0.00 48.4 94.2
9/22/21 - 2000 78.3 20 33.7 53.5 13.0 0.00 0.00 48.4 94.2
9/22/21 - 1900 85.4 18 37.3 56.5 13.2 0.00 0.00 48.4 94.2
9/22/21 - 1800 91.7 10 27.6 55.2 13.4 0.00 0.00 48.4 94.2
9/22/21 - 1700 92.7 11 29.8 56.0 13.4 0.00 0.00 48.4 94.2
9/22/21 - 1600 92.7 10 27.5 55.4 13.4 0.00 0.00 48.4 93.7
9/22/21 - 1500 91.6 11 28.8 55.5 13.4 0.00 0.00 48.4 92.6
9/22/21 - 1400 90.5 13 33.4 56.4 13.4 0.00 0.00 48.4 92.1
9/22/21 - 1300 87.2 17 37.4 57.0 13.4 0.00 0.00 48.4 88.3
9/22/21 - 1200 80.7 31 46.9 59.3 13.5 0.00 0.00 48.4 84.5
9/22/21 - 1100 78.9 30 44.3 57.7 13.6 0.00 0.00 48.4 80.6
9/22/21 - 1000 74.0 30 40.7 54.8 13.6 0.00 0.00 48.4 76.6
9/22/21 - 0900 64.7 39 39.0 51.1 13.8 0.00 0.00 48.4 69.5
9/22/21 - 0800 51.8 62 39.1 45.8 14.0 0.00 0.00 48.4 58.5
9/22/21 - 0700 50.2 62 37.8 44.5 12.8 0.00 0.00 48.4 56.9
9/22/21 - 0600 51.3 60 37.9 45.1 12.8 0.00 0.00 50.2 56.9
9/22/21 - 0500 51.3 61 38.1 45.2 12.8 0.00 0.00 50.6 56.9
9/22/21 - 0400 52.0 60 38.8 45.8 12.8 0.00 0.00 51.5 56.9
9/22/21 - 0300 53.0 56 38.0 45.9 12.9 0.00 0.00 51.8 56.9
9/22/21 - 0200 54.7 57 39.7 47.5 12.9 0.00 0.00 53.5 56.9
9/22/21 - 0100 57.4 52 39.9 48.7 12.9 0.00 0.00 45.7 96.7
9/22/21 - 0000 60.1 47 39.8 49.8 13.0 0.00 0.00 45.7 96.7
9/21/21 - 2300 62.9 45 41.4 51.5 13.0 0.00 0.00 45.7 96.7
9/21/21 - 2200 66.2 45 44.2 54.0 13.0 0.00 0.00 45.7 96.7
9/21/21 - 2100 73.0 31 40.8 54.6 13.0 0.00 0.00 45.7 96.7
9/21/21 - 2000 81.7 21 37.3 55.6 13.1 0.00 0.00 45.7 96.7
9/21/21 - 1900 89.8 14 33.3 56.2 13.2 0.00 0.00 45.7 96.7
9/21/21 - 1800 93.6 11 31.4 56.5 13.3 0.00 0.00 45.7 96.7
9/21/21 - 1700 95.7 11 31.9 57.0 13.3 0.00 0.00 45.7 96.7
9/21/21 - 1600 94.4 12 33.6 57.2 13.4 0.00 0.00 45.7 95.1
9/21/21 - 1500 93.1 12 33.8 57.0 13.4 0.00 0.00 45.7 94.7
9/21/21 - 1400 90.5 13 33.8 56.5 13.4 0.00 0.00 45.7 91.6
Max 96.7 85 57.8 61.5 14.0 0.00 0.00 53.9 97.8
Avg 66.4 47 41.1 51.9 13.2 0.00 - - -
Min 44.3 10 27.5 41.1 12.7 0.00 0.00 42.6 47.5
Total - - - - - 0.00 - - -